M I D A S
Marine Information and Data Acquisition System
Tripno 762 of the Zeeleeuw from 2004-08-16 06:43:36 to 2004-08-16 14:54:04
Back to CruiseResearch ActivitiesStationsMapUnderway DataData graphs

EquipmentUnitsComments
TimeDGPSUTC
LatitudeDGPSDM.mWGS84
LongitudeDGPSDM.mWGS84
SpeedMeteo Stationm/sRelative wind speed
DirectionMeteo StationdegRelative wind direction
TemperatureMeteo Stationdeg CelciusAir temperature
PressureMeteo StationPaAtmospheric pressure
HumidityMeteo Station%Relative humidity
Missing or incorrect values are displayed as -999
Metereological data collected by the RV Zeeleeuw from 2004-08-16 06:43:36 to 2004-08-16 14:54:04
                                                                                    Next 1000 lines
Time Latitude Longitude Speed Direction Temperature Pressure Humidity
2004-08-16 06:43:47 51°13.595 2°56.115 1.8 120 17.2 100750 96
2004-08-16 06:43:53 51°13.595 2°56.115 2 138 17.2 100750 96
2004-08-16 06:43:57 51°13.595 2°56.115 1.6 150 17.2 100750 96
2004-08-16 06:44:00 51°13.595 2°56.115 1.6 145 17.2 100750 96
2004-08-16 06:44:05 51°13.595 2°56.115 1.6 153 17.2 100750 96
2004-08-16 06:44:12 51°13.595 2°56.115 1.3 150 17.2 100750 96
2004-08-16 06:44:17 51°13.595 2°56.115 1.5 126 17.2 100750 96
2004-08-16 06:44:21 51°13.595 2°56.115 1.5 121 17.2 100750 96
2004-08-16 06:44:28 51°13.595 2°56.115 1.5 123 17.2 100750 96
2004-08-16 06:44:31 51°13.595 2°56.115 1.6 128 17.2 100750 96
2004-08-16 06:44:37 51°13.595 2°56.115 0.8 135 17.2 100750 96
2004-08-16 06:44:41 51°13.595 2°56.114 0.5 139 17.2 100750 96
2004-08-16 06:44:47 51°13.595 2°56.115 0.6 131 17.2 100760 96
2004-08-16 06:44:52 51°13.596 2°56.115 0.8 142 17.2 100760 96
2004-08-16 06:44:56 51°13.596 2°56.115 1 136 17.2 100760 96
2004-08-16 06:45:01 51°13.595 2°56.115 1.5 138 17.2 100760 96
2004-08-16 06:45:08 51°13.595 2°56.115 1.1 120 17.3 100750 96
2004-08-16 06:45:12 51°13.595 2°56.115 0.9 122 17.3 100750 96
2004-08-16 06:45:16 51°13.595 2°56.115 1 124 17.3 100750 96
2004-08-16 06:45:21 51°13.595 2°56.115 1.3 121 17.3 100750 96
2004-08-16 06:45:24 51°13.595 2°56.115 1.3 136 17.3 100750 96
2004-08-16 06:45:32 51°13.595 2°56.115 1.2 138 17.3 100750 96
2004-08-16 06:45:41 51°13.595 2°56.115 1.4 138 17.3 100750 96
2004-08-16 06:45:48 51°13.595 2°56.115 1.5 144 17.3 100750 96
2004-08-16 06:45:52 51°13.595 2°56.115 1.6 145 17.3 100750 96
2004-08-16 06:45:58 51°13.595 2°56.115 1.9 140 17.3 100750 96
2004-08-16 06:46:01 51°13.595 2°56.115 1.8 136 17.3 100750 96
2004-08-16 06:46:06 51°13.595 2°56.115 1.8 129 17.3 100750 96
2004-08-16 06:46:13 51°13.594 2°56.115 1.6 131 17.3 100750 96
2004-08-16 06:46:16 51°13.594 2°56.115 1.6 137 17.3 100760 96
2004-08-16 06:46:20 51°13.594 2°56.115 1.6 144 17.3 100760 96
2004-08-16 06:46:28 51°13.595 2°56.114 1.9 150 17.3 100750 96
2004-08-16 06:46:30 51°13.595 2°56.114 2.2 153 17.3 100750 96
2004-08-16 06:46:36 51°13.596 2°56.112 2.1 156 17.3 100750 96
2004-08-16 06:46:40 51°13.596 2°56.11 2 154 17.3 100750 96
2004-08-16 06:46:44 51°13.597 2°56.108 2.1 164 17.3 100750 96
2004-08-16 06:46:53 51°13.6 2°56.101 2.7 154 17.3 100750 96
2004-08-16 06:47:00 51°13.602 2°56.094 2.4 153 17.3 100750 96
2004-08-16 06:47:05 51°13.604 2°56.088 2.7 157 17.3 100750 96
2004-08-16 06:47:08 51°13.605 2°56.084 2.1 167 17.3 100750 97
2004-08-16 06:47:15 51°13.608 2°56.075 2.3 165 17.3 100750 97
2004-08-16 06:47:20 51°13.61 2°56.068 2.3 168 17.3 100750 96
2004-08-16 06:47:25 51°13.613 2°56.06 2.4 183 17.3 100750 96
2004-08-16 06:47:28 51°13.614 2°56.055 2.9 174 17.3 100750 97
2004-08-16 06:47:33 51°13.617 2°56.048 2.1 204 17.3 100750 97
2004-08-16 06:47:40 51°13.621 2°56.036 2.7 177 17.3 100750 96
2004-08-16 06:47:45 51°13.623 2°56.028 3.7 169 17.3 100750 96
2004-08-16 06:47:48 51°13.625 2°56.023 2.8 175 17.3 100750 97
2004-08-16 06:47:55 51°13.628 2°56.012 2.6 172 17.3 100750 97
2004-08-16 06:47:59 51°13.629 2°56.006 3.3 175 17.3 100760 96
2004-08-16 06:48:04 51°13.631 2°56 2.6 207 17.3 100760 96
2004-08-16 06:48:09 51°13.632 2°55.996 1.8 178 17.3 100750 96
2004-08-16 06:48:12 51°13.632 2°55.995 1 162 17.3 100750 96
2004-08-16 06:48:18 51°13.633 2°55.993 1.1 179 17.3 100760 96
2004-08-16 06:48:24 51°13.634 2°55.991 1.6 177 17.3 100760 96
2004-08-16 06:48:29 51°13.635 2°55.988 2 138 17.3 100750 96
2004-08-16 06:48:32 51°13.635 2°55.986 2.4 161 17.3 100750 96
2004-08-16 06:48:39 51°13.637 2°55.982 2 170 17.4 100750 96
2004-08-16 06:48:41 51°13.637 2°55.98 2.8 166 17.4 100750 96
2004-08-16 06:48:48 51°13.638 2°55.977 2.3 163 17.3 100750 96
2004-08-16 06:48:59 51°13.638 2°55.979 1.5 145 17.3 100750 96
2004-08-16 06:49:04 51°13.638 2°55.98 1.5 145 17.3 100750 96
2004-08-16 06:49:09 51°13.638 2°55.98 2 133 17.4 100750 96
2004-08-16 06:49:13 51°13.638 2°55.979 2.4 160 17.4 100750 96
2004-08-16 06:49:20 51°13.64 2°55.976 2.6 151 17.3 100750 96
2004-08-16 06:49:25 51°13.641 2°55.973 2.9 166 17.3 100750 96
2004-08-16 06:49:29 51°13.642 2°55.969 2.5 175 17.3 100750 96
2004-08-16 06:49:34 51°13.644 2°55.964 2.1 175 17.3 100750 96
2004-08-16 06:49:40 51°13.646 2°55.957 1.9 179 17.3 100750 96
2004-08-16 06:49:45 51°13.648 2°55.951 2.7 162 17.3 100750 96
2004-08-16 06:49:50 51°13.651 2°55.945 2.3 172 17.3 100750 96
2004-08-16 06:49:54 51°13.653 2°55.939 3.3 168 17.3 100750 96
2004-08-16 06:49:59 51°13.655 2°55.932 3.3 147 17.3 100750 97
2004-08-16 06:50:05 51°13.659 2°55.923 3.6 155 17.3 100750 97
2004-08-16 06:50:10 51°13.662 2°55.915 3 168 17.3 100750 97
2004-08-16 06:50:15 51°13.665 2°55.907 3.4 157 17.3 100750 97
2004-08-16 06:50:20 51°13.668 2°55.899 3.5 160 17.3 100750 96
2004-08-16 06:50:25 51°13.671 2°55.89 3.5 157 17.3 100750 96
2004-08-16 06:50:30 51°13.675 2°55.882 3.5 164 17.3 100750 96
2004-08-16 06:50:35 51°13.678 2°55.873 3.4 163 17.3 100750 96
2004-08-16 06:50:40 51°13.681 2°55.864 3.6 161 17.3 100750 96
2004-08-16 06:50:45 51°13.684 2°55.855 3.2 164 17.3 100750 96
2004-08-16 06:50:49 51°13.687 2°55.848 3.2 167 17.3 100750 96
2004-08-16 06:50:53 51°13.689 2°55.841 3.9 165 17.3 100750 96
2004-08-16 06:50:59 51°13.693 2°55.831 4 161 17.3 100750 96
2004-08-16 06:51:05 51°13.696 2°55.82 2.7 170 17.3 100750 96
2004-08-16 06:51:08 51°13.697 2°55.814 2.8 183 17.4 100750 96
2004-08-16 06:51:13 51°13.699 2°55.805 2.8 175 17.4 100750 96
2004-08-16 06:51:20 51°13.702 2°55.792 2.4 175 17.3 100750 96
2004-08-16 06:51:24 51°13.704 2°55.785 1.9 202 17.3 100750 96
2004-08-16 06:51:28 51°13.705 2°55.779 1.8 187 17.3 100750 97
2004-08-16 06:51:33 51°13.706 2°55.771 1.8 204 17.3 100750 97
2004-08-16 06:51:40 51°13.708 2°55.76 2.2 174 17.4 100750 97
2004-08-16 06:51:44 51°13.709 2°55.755 2.6 181 17.4 100750 97
2004-08-16 06:51:49 51°13.71 2°55.749 2.4 179 17.4 100750 96
2004-08-16 06:51:51 51°13.71 2°55.747 2.1 193 17.4 100750 96
2004-08-16 06:52:00 51°13.711 2°55.739 1.7 199 17.4 100750 96
2004-08-16 06:52:04 51°13.712 2°55.737 1.3 215 17.4 100750 96
2004-08-16 06:52:09 51°13.712 2°55.735 0.8 241 17.4 100750 96
2004-08-16 06:52:14 51°13.713 2°55.734 1.7 215 17.4 100750 96
2004-08-16 06:52:17 51°13.714 2°55.734 1.1 229 17.4 100750 96
2004-08-16 06:52:25 51°13.716 2°55.735 1.3 210 17.4 100750 96
2004-08-16 06:52:28 51°13.717 2°55.736 1.2 210 17.4 100750 96
2004-08-16 06:52:33 51°13.719 2°55.736 1.4 250 17.4 100750 96
2004-08-16 06:52:40 51°13.72 2°55.733 1.3 246 17.4 100750 96
2004-08-16 06:52:45 51°13.72 2°55.731 1.7 244 17.4 100750 96
2004-08-16 06:52:49 51°13.72 2°55.729 1.9 205 17.4 100750 96
2004-08-16 06:52:54 51°13.719 2°55.726 2.3 228 17.4 100750 96
2004-08-16 06:52:57 51°13.718 2°55.725 3.9 232 17.4 100750 96
2004-08-16 06:53:05 51°13.715 2°55.721 3 229 17.4 100750 96
2004-08-16 06:53:10 51°13.712 2°55.719 2.7 225 17.4 100750 96
2004-08-16 06:53:20 51°13.708 2°55.715 2.1 247 17.4 100750 97
2004-08-16 06:53:25 51°13.708 2°55.715 1.9 263 17.4 100750 97
2004-08-16 06:53:27 51°13.709 2°55.715 2.7 284 17.4 100750 97
2004-08-16 06:53:33 51°13.711 2°55.714 2.5 301 17.4 100750 97
2004-08-16 06:53:40 51°13.716 2°55.711 2.8 310 17.4 100750 97
2004-08-16 06:53:42 51°13.717 2°55.71 2.8 329 17.4 100750 97
2004-08-16 06:53:49 51°13.722 2°55.707 3.1 334 17.4 100750 97
2004-08-16 06:53:53 51°13.726 2°55.704 3 329 17.4 100750 97
2004-08-16 06:54:00 51°13.734 2°55.698 2.7 342 17.4 100750 97
2004-08-16 06:54:02 51°13.736 2°55.696 3 332 17.4 100750 97
2004-08-16 06:54:09 51°13.745 2°55.688 3.6 341 17.4 100750 97
2004-08-16 06:54:13 51°13.75 2°55.684 3.9 343 17.4 100750 97
2004-08-16 06:54:20 51°13.76 2°55.676 4.3 345 17.4 100750 97
2004-08-16 06:54:21 51°13.761 2°55.674 4.5 358 17.4 100750 97
2004-08-16 06:54:29 51°13.774 2°55.664 4.4 346 17.4 100750 97
2004-08-16 06:54:32 51°13.779 2°55.66 4.1 349 17.4 100750 97
2004-08-16 06:54:39 51°13.791 2°55.65 3.4 347 17.4 100750 97
2004-08-16 06:54:48 51°13.807 2°55.638 4.3 348 17.4 100740 97
2004-08-16 06:54:56 51°13.822 2°55.627 4.7 357 17.4 100740 97
2004-08-16 06:55:04 51°13.838 2°55.617 4.3 338 17.4 100740 97
2004-08-16 06:55:09 51°13.848 2°55.61 4.2 351 17.4 100740 97
2004-08-16 06:55:13 51°13.857 2°55.605 4.1 348 17.4 100740 97
2004-08-16 06:55:20 51°13.871 2°55.595 4.3 357 17.4 100750 97
2004-08-16 06:55:25 51°13.882 2°55.589 5 347 17.4 100750 97
2004-08-16 06:55:28 51°13.888 2°55.584 4.8 345 17.5 100750 97
2004-08-16 06:55:34 51°13.901 2°55.577 4 347 17.5 100750 97
2004-08-16 06:55:39 51°13.912 2°55.57 3.7 348 17.5 100740 97
2004-08-16 06:55:44 51°13.922 2°55.563 5.2 343 17.5 100740 97
2004-08-16 06:55:49 51°13.933 2°55.555 4.4 340 17.4 100750 97
2004-08-16 06:55:51 51°13.937 2°55.552 5.2 349 17.4 100750 97
2004-08-16 06:56:00 51°13.957 2°55.539 4.5 348 17.4 100750 97
2004-08-16 06:56:04 51°13.966 2°55.534 3.8 339 17.4 100750 97
2004-08-16 06:56:09 51°13.977 2°55.526 4 343 17.5 100740 97
2004-08-16 06:56:13 51°13.985 2°55.521 4.2 353 17.5 100740 97
2004-08-16 06:56:19 51°13.998 2°55.512 4.3 346 17.5 100740 97
2004-08-16 06:56:24 51°14.009 2°55.504 4.4 345 17.5 100740 97
2004-08-16 06:56:28 51°14.018 2°55.498 4.8 347 17.5 100750 97
2004-08-16 06:56:32 51°14.027 2°55.492 5.3 346 17.5 100750 97
2004-08-16 06:56:38 51°14.04 2°55.483 4.9 346 17.5 100740 97
2004-08-16 06:56:44 51°14.054 2°55.473 5 353 17.5 100740 97
2004-08-16 06:56:49 51°14.065 2°55.465 4.9 355 17.5 100740 97
2004-08-16 06:56:53 51°14.075 2°55.458 4.7 5 17.5 100740 97
2004-08-16 06:56:58 51°14.086 2°55.449 4.6 2 17.5 100740 97
2004-08-16 06:57:04 51°14.1 2°55.439 6.4 343 17.5 100740 97
2004-08-16 06:57:09 51°14.112 2°55.43 7.8 347 17.5 100740 97
2004-08-16 06:57:11 51°14.117 2°55.426 6.9 338 17.5 100740 97
2004-08-16 06:57:20 51°14.139 2°55.407 6.8 342 17.5 100740 97
2004-08-16 06:57:21 51°14.142 2°55.405 6.5 359 17.5 100740 97
2004-08-16 06:57:32 51°14.169 2°55.382 8.8 339 17.5 100740 97
2004-08-16 06:57:36 51°14.179 2°55.372 9.2 348 17.5 100740 97
2004-08-16 06:57:41 51°14.19 2°55.359 9.7 337 17.5 100740 97
2004-08-16 06:57:46 51°14.202 2°55.346 9.4 339 17.5 100740 97
2004-08-16 06:57:49 51°14.209 2°55.337 10.1 337 17.5 100740 97
2004-08-16 06:57:56 51°14.226 2°55.317 9.2 342 17.5 100740 97
2004-08-16 06:58:00 51°14.235 2°55.304 9.7 339 17.5 100740 97
2004-08-16 06:58:04 51°14.244 2°55.291 9.1 344 17.5 100740 97
2004-08-16 06:58:12 51°14.261 2°55.263 9.3 348 17.5 100730 97
2004-08-16 06:58:17 51°14.271 2°55.245 8.3 3 17.5 100730 97
2004-08-16 06:58:20 51°14.278 2°55.233 9.1 344 17.5 100730 97
2004-08-16 06:58:25 51°14.288 2°55.214 9.5 348 17.5 100730 97
2004-08-16 06:58:31 51°14.3 2°55.19 9.8 352 17.5 100730 97
2004-08-16 06:58:37 51°14.312 2°55.166 10.1 356 17.5 100730 97
2004-08-16 06:58:41 51°14.32 2°55.149 11 347 17.5 100730 97
2004-08-16 06:58:44 51°14.326 2°55.136 11.6 345 17.5 100730 97
2004-08-16 06:58:50 51°14.339 2°55.111 10.9 346 17.5 100730 97
2004-08-16 06:58:56 51°14.351 2°55.086 11.1 346 17.5 100730 97
2004-08-16 06:59:01 51°14.362 2°55.065 11.3 347 17.5 100720 97
2004-08-16 06:59:04 51°14.369 2°55.052 10.6 344 17.5 100720 97
2004-08-16 06:59:12 51°14.387 2°55.017 11 344 17.5 100720 97
2004-08-16 06:59:16 51°14.397 2°55 10.8 343 17.5 100720 97
2004-08-16 06:59:21 51°14.409 2°54.978 10.8 341 17.6 100720 97
2004-08-16 06:59:26 51°14.421 2°54.957 11.8 343 17.6 100720 97
2004-08-16 06:59:31 51°14.435 2°54.936 11 345 17.6 100720 97
2004-08-16 06:59:36 51°14.449 2°54.917 11.5 338 17.6 100720 97
2004-08-16 06:59:41 51°14.463 2°54.899 11 337 17.6 100720 97
2004-08-16 06:59:46 51°14.478 2°54.882 10.3 337 17.6 100720 97
2004-08-16 06:59:52 51°14.497 2°54.865 10.6 335 17.6 100720 97
2004-08-16 06:59:56 51°14.51 2°54.854 10.5 335 17.6 100720 97
2004-08-16 07:00:01 51°14.526 2°54.84 10.1 333 17.6 100720 97
2004-08-16 07:00:06 51°14.543 2°54.827 10.9 335 17.6 100720 97
2004-08-16 07:00:12 51°14.562 2°54.812 10.8 336 17.6 100720 97
2004-08-16 07:00:17 51°14.579 2°54.8 10.2 334 17.6 100720 97
2004-08-16 07:00:20 51°14.589 2°54.793 9.9 333 17.6 100720 97
2004-08-16 07:00:24 51°14.602 2°54.784 10.7 333 17.6 100720 97
2004-08-16 07:00:32 51°14.629 2°54.766 10.9 331 17.6 100720 97
2004-08-16 07:00:36 51°14.642 2°54.757 10.4 332 17.6 100720 97
2004-08-16 07:00:40 51°14.656 2°54.749 9.9 330 17.6 100720 97
2004-08-16 07:00:44 51°14.669 2°54.741 10 331 17.6 100720 97
2004-08-16 07:00:53 51°14.7 2°54.726 10.1 326 17.6 100720 97
2004-08-16 07:00:59 51°14.72 2°54.715 9.6 328 17.6 100720 97
2004-08-16 07:01:04 51°14.737 2°54.707 9.5 326 17.6 100720 97
2004-08-16 07:01:08 51°14.751 2°54.701 8.8 329 17.6 100720 97
2004-08-16 07:01:14 51°14.772 2°54.691 9.4 326 17.6 100720 97
2004-08-16 07:01:19 51°14.789 2°54.683 9.5 328 17.6 100720 97
2004-08-16 07:01:24 51°14.806 2°54.675 9.8 327 17.6 100720 97
2004-08-16 07:01:29 51°14.823 2°54.667 10.5 323 17.6 100720 97
2004-08-16 07:01:42 51°14.868 2°54.65 9.2 328 17.6 100720 97
2004-08-16 07:01:48 51°14.889 2°54.643 9.5 328 17.7 100720 97
2004-08-16 07:01:53 51°14.906 2°54.637 9.3 326 17.7 100720 97
2004-08-16 07:01:54 51°14.91 2°54.636 9.1 323 17.7 100720 97
2004-08-16 07:02:06 51°14.951 2°54.624 9.7 322 17.7 100720 97
2004-08-16 07:02:12 51°14.972 2°54.618 9.6 323 17.7 100720 97
2004-08-16 07:02:17 51°14.989 2°54.612 9.5 322 17.7 100720 97
2004-08-16 07:02:21 51°15.003 2°54.607 9 323 17.7 100730 97
2004-08-16 07:02:26 51°15.02 2°54.6 9 325 17.7 100730 97
2004-08-16 07:02:32 51°15.04 2°54.592 9 322 17.7 100720 97
2004-08-16 07:02:37 51°15.056 2°54.585 8.7 318 17.7 100720 97
2004-08-16 07:02:41 51°15.069 2°54.578 9.2 317 17.6 100720 97
2004-08-16 07:02:46 51°15.085 2°54.57 9.8 332 17.6 100720 97
2004-08-16 07:02:52 51°15.104 2°54.558 10.6 334 17.6 100720 97
2004-08-16 07:02:56 51°15.116 2°54.549 10 331 17.6 100720 97
2004-08-16 07:03:00 51°15.129 2°54.539 10.3 333 17.6 100730 97
2004-08-16 07:03:05 51°15.144 2°54.526 9.9 332 17.6 100730 97
2004-08-16 07:03:12 51°15.165 2°54.508 10.4 334 17.7 100720 97
2004-08-16 07:03:16 51°15.177 2°54.497 10.1 332 17.7 100720 97
2004-08-16 07:03:21 51°15.193 2°54.484 9.4 334 17.7 100720 97
2004-08-16 07:03:25 51°15.205 2°54.473 9.7 330 17.7 100720 97
2004-08-16 07:03:32 51°15.227 2°54.455 9.9 331 17.7 100720 97
2004-08-16 07:03:35 51°15.236 2°54.448 9.3 331 17.7 100720 97
2004-08-16 07:03:44 51°15.265 2°54.428 9.7 329 17.7 100720 97
2004-08-16 07:03:52 51°15.292 2°54.414 9 329 17.7 100720 97
2004-08-16 07:03:56 51°15.306 2°54.409 9.2 327 17.7 100720 97
2004-08-16 07:04:00 51°15.32 2°54.404 9.1 323 17.7 100720 97
2004-08-16 07:04:04 51°15.333 2°54.4 9 322 17.7 100720 97
2004-08-16 07:04:12 51°15.361 2°54.392 8.8 321 17.7 100720 97
2004-08-16 07:04:13 51°15.364 2°54.392 8.5 319 17.7 100720 97
2004-08-16 07:04:24 51°15.402 2°54.381 8.7 323 17.7 100720 97
2004-08-16 07:04:28 51°15.416 2°54.376 9 327 17.7 100720 97
2004-08-16 07:04:33 51°15.434 2°54.369 8.9 328 17.7 100720 97
2004-08-16 07:04:38 51°15.451 2°54.361 10.1 328 17.7 100720 97
2004-08-16 07:04:44 51°15.471 2°54.349 10.4 329 17.7 100720 97
2004-08-16 07:04:48 51°15.484 2°54.341 9.5 328 17.7 100730 97
2004-08-16 07:04:54 51°15.504 2°54.328 9.8 328 17.7 100730 97
2004-08-16 07:04:56 51°15.51 2°54.323 9.6 323 17.7 100720 97
2004-08-16 07:05:05 51°15.541 2°54.306 9.3 327 17.7 100720 97
2004-08-16 07:05:09 51°15.555 2°54.301 8.9 324 17.7 100720 97
2004-08-16 07:05:20 51°15.594 2°54.287 8.5 320 17.7 100720 97
2004-08-16 07:05:28 51°15.622 2°54.28 9 325 17.7 100720 97
2004-08-16 07:05:31 51°15.632 2°54.277 9.5 324 17.7 100720 97
2004-08-16 07:05:36 51°15.65 2°54.272 9.3 323 17.7 100730 97
2004-08-16 07:05:41 51°15.667 2°54.267 9.2 324 17.7 100730 97
2004-08-16 07:05:48 51°15.692 2°54.259 8.9 325 17.7 100730 97
2004-08-16 07:05:50 51°15.699 2°54.256 9.2 324 17.7 100730 97
2004-08-16 07:05:57 51°15.723 2°54.246 9.2 330 17.8 100720 97
2004-08-16 07:06:02 51°15.741 2°54.238 9.9 329 17.8 100720 97
2004-08-16 07:06:05 51°15.751 2°54.233 9.7 328 17.8 100720 97
2004-08-16 07:06:13 51°15.779 2°54.222 9.8 326 17.8 100720 97
2004-08-16 07:06:16 51°15.79 2°54.218 9.2 325 17.8 100720 97
2004-08-16 07:06:20 51°15.804 2°54.214 9.1 322 17.8 100720 97
2004-08-16 07:06:28 51°15.832 2°54.207 8.3 323 17.8 100720 97
2004-08-16 07:06:30 51°15.839 2°54.206 8.9 320 17.8 100720 97
2004-08-16 07:06:37 51°15.864 2°54.201 8.2 324 17.8 100720 97
2004-08-16 07:06:40 51°15.875 2°54.199 7.9 320 17.8 100720 97
2004-08-16 07:06:46 51°15.896 2°54.194 8.3 325 17.8 100720 97
2004-08-16 07:06:53 51°15.919 2°54.187 7.8 321 17.8 100720 97
2004-08-16 07:06:56 51°15.929 2°54.183 9 320 17.8 100720 97
2004-08-16 07:07:00 51°15.941 2°54.179 8.5 317 17.8 100720 97
2004-08-16 07:07:07 51°15.961 2°54.17 8.4 44 17.8 100720 97
2004-08-16 07:07:12 51°15.975 2°54.164 7.9 315 17.8 100720 97
2004-08-16 07:07:17 51°15.988 2°54.157 7.8 315 17.8 100730 97
2004-08-16 07:07:21 51°15.997 2°54.151 8.2 43 17.8 100730 97
2004-08-16 07:07:27 51°16.011 2°54.143 9 227 17.8 100720 97
2004-08-16 07:07:31 51°16.02 2°54.138 8 313 17.8 100720 97
2004-08-16 07:07:37 51°16.033 2°54.131 7.4 308 17.8 100730 97
2004-08-16 07:07:43 51°16.046 2°54.126 7.3 304 17.8 100730 97
2004-08-16 07:07:46 51°16.052 2°54.123 6.5 299 17.8 100730 97
2004-08-16 07:07:53 51°16.066 2°54.122 6.6 297 17.8 100730 97
2004-08-16 07:07:58 51°16.076 2°54.123 6.2 293 17.8 100730 97
2004-08-16 07:08:02 51°16.083 2°54.124 5.2 288 17.8 100730 97
2004-08-16 07:08:08 51°16.094 2°54.127 5.2 287 17.9 100730 97
2004-08-16 07:08:10 51°16.098 2°54.128 5.5 283 17.9 100730 97
2004-08-16 07:08:21 51°16.116 2°54.136 5.7 273 17.9 100730 97
2004-08-16 07:08:27 51°16.125 2°54.142 5.3 269 17.9 100740 97
2004-08-16 07:08:33 51°16.134 2°54.149 5.1 265 17.9 100740 97
2004-08-16 07:08:36 51°16.139 2°54.153 5 263 17.9 100740 97
2004-08-16 07:08:40 51°16.145 2°54.158 4.7 263 17.9 100740 97
2004-08-16 07:08:48 51°16.156 2°54.169 3.3 256 17.9 100740 97
2004-08-16 07:08:53 51°16.162 2°54.176 2.5 255 17.9 100740 97
2004-08-16 07:08:57 51°16.168 2°54.182 2.7 256 17.9 100740 97
2004-08-16 07:09:00 51°16.172 2°54.185 3.4 254 17.9 100740 97
2004-08-16 07:09:07 51°16.18 2°54.194 2.9 255 17.9 100740 97
2004-08-16 07:09:11 51°16.185 2°54.199 3.4 248 17.9 100740 97
2004-08-16 07:09:17 51°16.191 2°54.206 3.4 248 17.9 100740 97
2004-08-16 07:09:21 51°16.195 2°54.211 3 249 17.9 100740 97
2004-08-16 07:09:27 51°16.201 2°54.218 3.2 248 17.9 100740 97
2004-08-16 07:09:33 51°16.207 2°54.224 3.3 244 17.9 100740 97
2004-08-16 07:09:36 51°16.21 2°54.227 3.4 250 18 100740 96
2004-08-16 07:09:40 51°16.213 2°54.231 3.1 246 18 100740 96
2004-08-16 07:09:48 51°16.221 2°54.239 3.3 249 18 100740 96
2004-08-16 07:09:52 51°16.224 2°54.242 3.1 249 18 100740 96
2004-08-16 07:09:56 51°16.227 2°54.246 2.8 251 18 100740 96
2004-08-16 07:10:00 51°16.231 2°54.249 2.7 253 18 100740 96
2004-08-16 07:10:07 51°16.236 2°54.254 2.8 251 17.9 100740 96
2004-08-16 07:10:11 51°16.239 2°54.257 3.7 243 17.9 100740 96
2004-08-16 07:10:17 51°16.244 2°54.26 3.1 244 17.9 100740 96
2004-08-16 07:10:22 51°16.247 2°54.263 3.4 247 17.9 100740 96
2004-08-16 07:10:27 51°16.251 2°54.265 3.7 247 18 100740 96
2004-08-16 07:10:33 51°16.254 2°54.267 3.8 248 18 100740 96
2004-08-16 07:10:37 51°16.257 2°54.268 3.4 248 18 100740 96
2004-08-16 07:10:40 51°16.258 2°54.269 3.4 248 18 100740 96
2004-08-16 07:10:45 51°16.26 2°54.27 3.8 242 18 100740 96
2004-08-16 07:10:52 51°16.263 2°54.27 3.6 247 18 100740 96
2004-08-16 07:10:57 51°16.264 2°54.269 3.8 246 18 100740 96
2004-08-16 07:11:00 51°16.265 2°54.269 4.3   18 100740 96
2004-08-16 07:11:08 51°16.266 2°54.267 3.6 249 18 100740 96
2004-08-16 07:11:13 51°16.266 2°54.266 3.8 249 18 100740 96
2004-08-16 07:11:25 51°16.267 2°54.264 3.3 255 18 100740 96
2004-08-16 07:11:30 51°16.268 2°54.262 5.1 263 18 100740 96
2004-08-16 07:11:34 51°16.268 2°54.261 5.3 272 18 100740 96
2004-08-16 07:11:40 51°16.269 2°54.26 4.9 267 18 100740 96
2004-08-16 07:11:44 51°16.269 2°54.258 4.9 267 18 100740 96
2004-08-16 07:11:49 51°16.269 2°54.257 4.4 269 18 100740 96
2004-08-16 07:11:53 51°16.27 2°54.256 5.2 269 18 100740 96
2004-08-16 07:12:00 51°16.27 2°54.254 5.1 272 18 100740 96
2004-08-16 07:12:04 51°16.271 2°54.252 5.3 272 18 100740 96
2004-08-16 07:12:08 51°16.271 2°54.251 5.8 266 18 100740 96
2004-08-16 07:12:13 51°16.271 2°54.249 4.8 263 18 100740 96
2004-08-16 07:12:18 51°16.272 2°54.247 4.9 271 18.1 100740 96
2004-08-16 07:12:24 51°16.272 2°54.245 5.1 271 18.1 100740 96
2004-08-16 07:12:28 51°16.272 2°54.243 5.8 271 18.1 100740 96
2004-08-16 07:12:33 51°16.273 2°54.241 5.8 268 18.1 100740 96
2004-08-16 07:12:40 51°16.274 2°54.239 6.3 277 18.1 100740 96
2004-08-16 07:12:45 51°16.274 2°54.237 5.5 279 18.1 100740 96
2004-08-16 07:12:48 51°16.274 2°54.235 5.1 276 18.1 100740 96
2004-08-16 07:12:53 51°16.275 2°54.233 5.6 280 18.1 100740 96
2004-08-16 07:13:05 51°16.275 2°54.229 4.9 277 18.1 100740 96
2004-08-16 07:13:10 51°16.276 2°54.227 6.1 276 18 100740 96
2004-08-16 07:13:14 51°16.276 2°54.225 5.8 278 18 100740 96
2004-08-16 07:13:20 51°16.277 2°54.223 5.9 280 18.1 100740 96
2004-08-16 07:13:24 51°16.277 2°54.221 5.2 278 18.1 100740 96
2004-08-16 07:13:28 51°16.278 2°54.22 5.5 280 18.1 100740 96
2004-08-16 07:13:33 51°16.278 2°54.218 5.9 287 18.1 100740 96
2004-08-16 07:13:40 51°16.279 2°54.215 6.1 279 18.1 100730 96
2004-08-16 07:13:42 51°16.279 2°54.214 6 281 18.1 100730 96
2004-08-16 07:13:49 51°16.28 2°54.212 6.3 284 18.1 100730 96
2004-08-16 07:13:53 51°16.28 2°54.21 6.1 285 18.1 100730 96
2004-08-16 07:14:00 51°16.281 2°54.207 5.6 284 18.1 100730 96
2004-08-16 07:14:04 51°16.281 2°54.206 5.4 283 18.1 100730 96
2004-08-16 07:14:09 51°16.282 2°54.204 5.8 284 18.1 100740 96
2004-08-16 07:14:13 51°16.282 2°54.203 5.4 282 18.1 100740 96
2004-08-16 07:14:19 51°16.283 2°54.2 5.5 275 18.1 100740 96
2004-08-16 07:14:24 51°16.284 2°54.199 6.1 279 18.1 100740 96
2004-08-16 07:14:30 51°16.284 2°54.196 5.7 281 18.1 100740 96
2004-08-16 07:14:34 51°16.285 2°54.195 5.7 277 18.1 100740 96
2004-08-16 07:14:39 51°16.286 2°54.193 5.2 275 18.1 100730 96
2004-08-16 07:14:44 51°16.287 2°54.191 5.2 282 18.1 100730 96
2004-08-16 07:14:48 51°16.287 2°54.19 5.3 282 18.1 100730 96
2004-08-16 07:14:59 51°16.289 2°54.186 5.9 284 18.1 100740 96
2004-08-16 07:15:05 51°16.291 2°54.183 5.5 284 18.1 100740 96
2004-08-16 07:15:08 51°16.293 2°54.182 6 292 18.1 100730 96
2004-08-16 07:15:13 51°16.296 2°54.179 6.3 299 18.1 100730 96
2004-08-16 07:15:16 51°16.298 2°54.177 6.6 302 18.1 100730 96
2004-08-16 07:15:24 51°16.305 2°54.17 6.6 308 18.1 100730 96
2004-08-16 07:15:28 51°16.309 2°54.165 6.8 313 18.1 100730 96
2004-08-16 07:15:33 51°16.314 2°54.159 7.1 42 18.1 100730 96
2004-08-16 07:15:40 51°16.322 2°54.148 7.2 320 18.2 100730 96
2004-08-16 07:15:43 51°16.325 2°54.142 7.9 322 18.2 100730 96
2004-08-16 07:15:48 51°16.332 2°54.132 8.8 329 18.1 100730 96
2004-08-16 07:15:54 51°16.342 2°54.118 9.1 331 18.1 100730 96
2004-08-16 07:16:00 51°16.354 2°54.102 9.4 328 18.2 100730 96
2004-08-16 07:16:04 51°16.363 2°54.09 10.3 330 18.2 100730 96
2004-08-16 07:16:09 51°16.374 2°54.075 9.6 333 18.2 100720 96
2004-08-16 07:16:13 51°16.383 2°54.062 10.8 333 18.2 100720 96
2004-08-16 07:16:20 51°16.4 2°54.039 11.3 336 18.2 100710 96
2004-08-16 07:16:24 51°16.41 2°54.025 10.8 334 18.2 100710 96
2004-08-16 07:16:29 51°16.421 2°54.005 11.3 338 18.2 100710 95
2004-08-16 07:16:33 51°16.43 2°53.989 11.6 338 18.2 100710 95
2004-08-16 07:16:40 51°16.446 2°53.958 12.5 340 18.2 100700 95
2004-08-16 07:16:44 51°16.455 2°53.94 11.9 339 18.2 100700 95
2004-08-16 07:16:48 51°16.464 2°53.922 11.6 341 18.2 100700 95
2004-08-16 07:16:53 51°16.475 2°53.899 12 342 18.2 100700 95
2004-08-16 07:17:00 51°16.491 2°53.865 12.3 343 18.2 100710 95
2004-08-16 07:17:04 51°16.5 2°53.847 11.5 344 18.2 100710 95
2004-08-16 07:17:08 51°16.509 2°53.827 12 347 18.2 100700 95
2004-08-16 07:17:13 51°16.52 2°53.803 11.4 345 18.2 100700 95
2004-08-16 07:17:20 51°16.535 2°53.769 12.7 341 18.2 100700 95
2004-08-16 07:17:25 51°16.546 2°53.745 13.3 341 18.2 100700 95
2004-08-16 07:17:28 51°16.553 2°53.731 13.1 343 18.2 100710 95
2004-08-16 07:17:33 51°16.565 2°53.707 12.6 341 18.2 100710 95
2004-08-16 07:17:39 51°16.579 2°53.679 13.1 342 18.2 100700 95
2004-08-16 07:17:44 51°16.59 2°53.655 13.2 341 18.2 100700 95
2004-08-16 07:17:49 51°16.602 2°53.632 12.4 340 18.3 100700 95
2004-08-16 07:17:52 51°16.609 2°53.618 12.5 338 18.3 100700 95
2004-08-16 07:18:00 51°16.628 2°53.581 12.2 341 18.2 100700 95
2004-08-16 07:18:04 51°16.637 2°53.562 12.3 338 18.2 100700 95
2004-08-16 07:18:09 51°16.65 2°53.54 12.6 338 18.2 100700 95
2004-08-16 07:18:13 51°16.659 2°53.522 12.3 339 18.2 100700 95
2004-08-16 07:18:19 51°16.674 2°53.495 12.7 341 18.2 100700 95
2004-08-16 07:18:25 51°16.689 2°53.469 12.8 347 18.2 100700 95
2004-08-16 07:18:30 51°16.701 2°53.446 13 343 18.3 100700 95
2004-08-16 07:18:34 51°16.711 2°53.429 12.9 345 18.3 100700 95
2004-08-16 07:18:40 51°16.725 2°53.402 13.3 345 18.3 100700 95
2004-08-16 07:18:44 51°16.735 2°53.384 13.7 342 18.3 100700 95
2004-08-16 07:18:48 51°16.744 2°53.366 12.6 343 18.3 100700 95
2004-08-16 07:18:52 51°16.754 2°53.348 13.2 346 18.3 100700 95
2004-08-16 07:19:00 51°16.773 2°53.312 13.3 344 18.3 100700 95
2004-08-16 07:19:04 51°16.782 2°53.294 12.9 340 18.3 100700 95
2004-08-16 07:19:09 51°16.794 2°53.271 13 340 18.3 100700 95
2004-08-16 07:19:13 51°16.804 2°53.254 12.4 344 18.3 100700 95
2004-08-16 07:19:20 51°16.821 2°53.224 12.6 339 18.3 100700 95
2004-08-16 07:19:25 51°16.833 2°53.202 13 341 18.3 100700 95
2004-08-16 07:19:29 51°16.843 2°53.186 13.1 339 18.3 100700 95
2004-08-16 07:19:33 51°16.853 2°53.169 12.9 342 18.3 100700 95
2004-08-16 07:19:40 51°16.87 2°53.141 12.7 341 18.3 100700 94
2004-08-16 07:19:45 51°16.882 2°53.121 11.6 343 18.3 100700 94
2004-08-16 07:19:49 51°16.892 2°53.105 12.3 344 18.3 100690 95
2004-08-16 07:19:54 51°16.903 2°53.085 11.7 345 18.3 100690 95
2004-08-16 07:19:59 51°16.914 2°53.065 12.9 341 18.3 100700 95
2004-08-16 07:20:05 51°16.928 2°53.04 12.1 346 18.3 100700 95
2004-08-16 07:20:08 51°16.934 2°53.028 12.4 348 18.3 100700 94
2004-08-16 07:20:13 51°16.944 2°53.006 12.7 349 18.3 100700 94
2004-08-16 07:20:19 51°16.957 2°52.979 12.2 346 18.3 100700 94
2004-08-16 07:20:24 51°16.967 2°52.957 12.3 344 18.3 100700 94
2004-08-16 07:20:41 51°17.004 2°52.882 13.2 343 18.3 100700 94
2004-08-16 07:20:44 51°17.012 2°52.869 12.8 343 18.3 100700 94
2004-08-16 07:20:53 51°17.035 2°52.833 12.4 341 18.3 100700 94
2004-08-16 07:21:00 51°17.054 2°52.806 12.9 340 18.3 100700 94
2004-08-16 07:21:03 51°17.062 2°52.795 13.4 339 18.3 100700 94
2004-08-16 07:21:08 51°17.076 2°52.776 12.5 340 18.3 100700 94
2004-08-16 07:21:11 51°17.085 2°52.765 11.8 341 18.3 100700 94
2004-08-16 07:21:16 51°17.098 2°52.746 12.8 346 18.3 100700 94
2004-08-16 07:21:26 51°17.124 2°52.705 12.3 343 18.3 100700 94
2004-08-16 07:21:32 51°17.139 2°52.679 12.5 342 18.3 100700 94
2004-08-16 07:21:35 51°17.146 2°52.666 12 342 18.3 100700 94
2004-08-16 07:21:40 51°17.158 2°52.645 13.5 344 18.3 100700 94
2004-08-16 07:21:46 51°17.172 2°52.618 13.4 339 18.3 100700 94
2004-08-16 07:21:52 51°17.185 2°52.592 12.8 344 18.3 100700 94
2004-08-16 07:21:57 51°17.197 2°52.569 12.8 342 18.3 100700 94
2004-08-16 07:22:02 51°17.209 2°52.548 12.2 341 18.3 100700 94
2004-08-16 07:22:06 51°17.219 2°52.53 12.4 340 18.3 100700 94
2004-08-16 07:22:12 51°17.234 2°52.505 11.9 340 18.3 100700 94
2004-08-16 07:22:16 51°17.244 2°52.488 11.1 340 18.3 100700 94
2004-08-16 07:22:20 51°17.254 2°52.472 12.6 339 18.3 100690 94
2004-08-16 07:22:30 51°17.28 2°52.432 12 341 18.2 100700 93
2004-08-16 07:22:36 51°17.296 2°52.407 12.5 339 18.2 100700 93
2004-08-16 07:22:40 51°17.306 2°52.39 12.8 339 18.3 100700 94
2004-08-16 07:22:46 51°17.321 2°52.365 12.9 340 18.3 100700 94
2004-08-16 07:22:49 51°17.329 2°52.352 12.6 340 18.2 100690 93
2004-08-16 07:22:56 51°17.346 2°52.322 12.6 341 18.2 100690 93
2004-08-16 07:23:00 51°17.356 2°52.304 12.7 342 18.2 100700 93
2004-08-16 07:23:06 51°17.37 2°52.278 12.1 340 18.2 100700 93
2004-08-16 07:23:10 51°17.38 2°52.261 12 338 18.2 100690 93
2004-08-16 07:23:15 51°17.393 2°52.24 12.1 337 18.2 100690 93
2004-08-16 07:23:20 51°17.406 2°52.22 11.9 338 18.2 100690 93
2004-08-16 07:23:26 51°17.423 2°52.197 11.7 333 18.2 100690 93
2004-08-16 07:23:28 51°17.428 2°52.19 11.6 334 18.2 100690 93
2004-08-16 07:23:36 51°17.45 2°52.161 11.4 332 18.2 100690 93
2004-08-16 07:23:40 51°17.461 2°52.147 11.7 332 18.2 100690 93
2004-08-16 07:23:45 51°17.476 2°52.129 11.4 333 18.2 100690 93
2004-08-16 07:23:50 51°17.49 2°52.111 10.6 337 18.2 100700 93
2004-08-16 07:23:56 51°17.507 2°52.089 11.4 340 18.2 100700 93
2004-08-16 07:24:00 51°17.518 2°52.075 11.5 340 18.2 100700 93
2004-08-16 07:24:05 51°17.532 2°52.057 11.1 337 18.2 100700 93
2004-08-16 07:24:09 51°17.543 2°52.042 10.8 342 18.2 100700 93
2004-08-16 07:24:16 51°17.562 2°52.016 12.1 339 18.2 100700 93
2004-08-16 07:24:20 51°17.573 2°52.001 11.6 339 18.2 100690 93
2004-08-16 07:24:24 51°17.584 2°51.986 11.8 342 18.2 100690 93
2004-08-16 07:24:32 51°17.606 2°51.956 11.8 340 18.2 100690 93
2004-08-16 07:24:37 51°17.62 2°51.937 11.8 341 18.2 100690 93
2004-08-16 07:24:44 51°17.639 2°51.911 11.4 335 18.2 100690 93
2004-08-16 07:24:49 51°17.653 2°51.893 11.7 340 18.2 100690 93
2004-08-16 07:24:53 51°17.664 2°51.878 12.1 340 18.2 100690 93
2004-08-16 07:24:56 51°17.672 2°51.867 11.7 339 18.2 100700 93
2004-08-16 07:25:04 51°17.694 2°51.838 11.8 338 18.2 100700 93
2004-08-16 07:25:09 51°17.708 2°51.82 12.7 338 18.2 100690 93
2004-08-16 07:25:13 51°17.718 2°51.805 11.9 340 18.2 100690 93
2004-08-16 07:25:18 51°17.732 2°51.786 12.4 340 18.2 100690 93
2004-08-16 07:25:24 51°17.748 2°51.764 11.4 342 18.2 100690 93
2004-08-16 07:25:29 51°17.762 2°51.744 11.4 341 18.2 100690 93
2004-08-16 07:25:32 51°17.77 2°51.733 11.4 340 18.2 100690 93
2004-08-16 07:25:36 51°17.78 2°51.718 11.4 338 18.2 100690 93
2004-08-16 07:25:46 51°17.808 2°51.68 11.1 336 18.2 100690 93
2004-08-16 07:25:52 51°17.824 2°51.658 11.4 335 18.2 100690 93
2004-08-16 07:25:55 51°17.833 2°51.647 11.4 330 18.2 100690 93
2004-08-16 07:26:00 51°17.847 2°51.63 11.5 331 18.2 100690 92
2004-08-16 07:26:04 51°17.858 2°51.615 11.7 338 18.2 100690 92
2004-08-16 07:26:12 51°17.882 2°51.588 11.5 337 18.2 100690 93
2004-08-16 07:26:15 51°17.89 2°51.578 11.3 333 18.2 100690 93
2004-08-16 07:26:20 51°17.905 2°51.561 11.4 337 18.2 100700 93
2004-08-16 07:26:24 51°17.916 2°51.547 11.2 336 18.2 100700 93
2004-08-16 07:26:32 51°17.939 2°51.518 11 333 18.2 100690 93
2004-08-16 07:26:35 51°17.948 2°51.508 11.3 333 18.2 100690 93
2004-08-16 07:26:40 51°17.962 2°51.489 11.8 336 18.2 100690 92
2004-08-16 07:26:44 51°17.973 2°51.475 12.3 335 18.2 100690 92
2004-08-16 07:26:52 51°17.996 2°51.445 11.5 334 18.2 100690 92
2004-08-16 07:26:55 51°18.004 2°51.434 11.5 333 18.2 100690 92
2004-08-16 07:27:00 51°18.018 2°51.415 11.2 333 18.2 100690 92
2004-08-16 07:27:04 51°18.029 2°51.4 11.4 330 18.2 100690 92
2004-08-16 07:27:12 51°18.052 2°51.37 11.5 340 18.2 100680 92
2004-08-16 07:27:15 51°18.06 2°51.359 10.9 335 18.2 100680 92
2004-08-16 07:27:20 51°18.074 2°51.34 11.5 337 18.2 100690 92
2004-08-16 07:27:24 51°18.086 2°51.325 11.1 335 18.2 100690 92
2004-08-16 07:27:32 51°18.109 2°51.297 10.9 336 18.2 100690 92
2004-08-16 07:27:35 51°18.118 2°51.287 10.9 333 18.2 100690 92
2004-08-16 07:27:40 51°18.132 2°51.27 10.7 335 18.2 100690 92
2004-08-16 07:27:44 51°18.144 2°51.256 10.6 335 18.2 100690 92
2004-08-16 07:27:52 51°18.168 2°51.23 11.2 337 18.2 100690 92
2004-08-16 07:27:55 51°18.177 2°51.221 11.1 334 18.2 100690 92
2004-08-16 07:28:00 51°18.193 2°51.205 11.2 335 18.2 100690 92
2004-08-16 07:28:04 51°18.205 2°51.192 11.5 334 18.2 100690 92
2004-08-16 07:28:12 51°18.229 2°51.167 11 336 18.2 100690 92
2004-08-16 07:28:15 51°18.238 2°51.157 12 334 18.2 100690 92
2004-08-16 07:28:20 51°18.253 2°51.141 11.8 332 18.2 100690 92
2004-08-16 07:28:24 51°18.265 2°51.128 11.4 331 18.2 100690 92
2004-08-16 07:28:32 51°18.289 2°51.102 11.2 333 18.2 100690 92
2004-08-16 07:28:35 51°18.298 2°51.092 11.2 330 18.2 100690 92
2004-08-16 07:28:40 51°18.313 2°51.075 11.1 328 18.2 100690 92
2004-08-16 07:28:45 51°18.328 2°51.059 10.6 328 18.2 100690 92
2004-08-16 07:28:50 51°18.342 2°51.044 9.2 324 18.3 100690 92
2004-08-16 07:28:56 51°18.357 2°51.028 9.7 320 18.3 100690 92
2004-08-16 07:29:00 51°18.368 2°51.019 8.9 323 18.2 100690 92
2004-08-16 07:29:06 51°18.382 2°51.008 9 42 18.2 100690 92
2004-08-16 07:29:11 51°18.394 2°51.002 9.1 311 18.2 100690 92
2004-08-16 07:29:16 51°18.405 2°50.997 8.4 310 18.2 100690 92
2004-08-16 07:29:22 51°18.417 2°50.994 8.2 299 18.3 100700 92
2004-08-16 07:29:26 51°18.425 2°50.994 7 294 18.3 100700 92
2004-08-16 07:29:32 51°18.435 2°50.995 6.3 285 18.3 100700 92
2004-08-16 07:29:36 51°18.442 2°50.997 6.6 277 18.3 100700 92
2004-08-16 07:29:40 51°18.447 2°51.001 7.2 268 18.3 100700 92
2004-08-16 07:29:44 51°18.453 2°51.005 6.3 263 18.3 100700 92
2004-08-16 07:29:52 51°18.462 2°51.012 6 262 18.3 100710 92
2004-08-16 07:29:56 51°18.467 2°51.017 4.7 258 18.3 100710 92
2004-08-16 07:30:02 51°18.473 2°51.023 3.7 257 18.3 100710 91
2004-08-16 07:30:07 51°18.477 2°51.028 4.6 248 18.3 100710 91
2004-08-16 07:30:10 51°18.479 2°51.031 4.6 245 18.2 100720 91
2004-08-16 07:30:16 51°18.484 2°51.037 4.9 244 18.2 100720 91
2004-08-16 07:30:22 51°18.487 2°51.042 4.7 244 18.2 100720 91
2004-08-16 07:30:25 51°18.489 2°51.045 5.1 237 18.2 100720 91
2004-08-16 07:30:32 51°18.49 2°51.048 5.3 233 18.2 100720 91
2004-08-16 07:30:36 51°18.49 2°51.049 5.6 215 18.2 100720 91
2004-08-16 07:30:40 51°18.49 2°51.049 6.8 215 18.2 100720 91
2004-08-16 07:30:47 51°18.489 2°51.048 6.4 216 18.2 100720 91
2004-08-16 07:30:49 51°18.489 2°51.048 5.6 213 18.3 100720 91
2004-08-16 07:31:00 51°18.488 2°51.048 5.5 212 18.3 100720 91
2004-08-16 07:31:08 51°18.487 2°51.048 5.9 208 18.2 100720 91
2004-08-16 07:31:12 51°18.487 2°51.048 5.1 210 18.2 100720 91
2004-08-16 07:31:16 51°18.486 2°51.048 5.3 214 18.2 100720 91
2004-08-16 07:31:21 51°18.486 2°51.048 5.4 210 18.2 100720 91
2004-08-16 07:31:28 51°18.485 2°51.048 6.3 214 18.2 100720 91
2004-08-16 07:31:32 51°18.484 2°51.048 5.7 213 18.2 100720 91
2004-08-16 07:31:36 51°18.483 2°51.048 5.8 212 18.2 100720 91
2004-08-16 07:31:41 51°18.483 2°51.048 5.2 214 18.2 100720 91
2004-08-16 07:31:48 51°18.482 2°51.049 5.6 210 18.2 100720 91
2004-08-16 07:31:52 51°18.481 2°51.049 5.9 210 18.2 100720 91
2004-08-16 07:31:56 51°18.48 2°51.049 5.5 214 18.2 100720 90
2004-08-16 07:32:01 51°18.48 2°51.049 5.4   18.2 100720 90
2004-08-16 07:32:08 51°18.478 2°51.05 5.4 208 18.2 100720 90
2004-08-16 07:32:11 51°18.478 2°51.05 5.6 211 18.2 100720 90
2004-08-16 07:32:17 51°18.477 2°51.05 6.3 213 18.2 100720 90
2004-08-16 07:32:21 51°18.476 2°51.051 5.6 211 18.2 100720 90
2004-08-16 07:32:26 51°18.475 2°51.051 4.8 214 18.2 100720 91
2004-08-16 07:32:33 51°18.474 2°51.052 4.3 213 18.2 100720 91
2004-08-16 07:32:36 51°18.473 2°51.052 5.1 209 18.2 100720 91
2004-08-16 07:32:40 51°18.472 2°51.052 4.8 203 18.2 100720 91
2004-08-16 07:32:48 51°18.471 2°51.053 5.5 207 18.3 100720 91
2004-08-16 07:32:50 51°18.47 2°51.053 5.2 210 18.3 100720 91
2004-08-16 07:32:57 51°18.469 2°51.054 4.6 210 18.3 100720 91
2004-08-16 07:33:00 51°18.468 2°51.054 5.3 210 18.3 100720 91
2004-08-16 07:33:08 51°18.467 2°51.055 4.9 217 18.3 100720 91
2004-08-16 07:33:11 51°18.466 2°51.055 5.5 217 18.3 100720 91
2004-08-16 07:33:16 51°18.465 2°51.055 6.1 216 18.3 100720 91
2004-08-16 07:33:26 51°18.463 2°51.056 5.8 213 18.3 100720 91
2004-08-16 07:33:32 51°18.462 2°51.057 4.7 207 18.2 100720 90
2004-08-16 07:33:37 51°18.461 2°51.057 5.1 216 18.2 100720 90
2004-08-16 07:33:41 51°18.46 2°51.057 5 215 18.2 100720 90
2004-08-16 07:33:46 51°18.459 2°51.058 5.3 217 18.2 100720 90
2004-08-16 07:33:51 51°18.459 2°51.058 5.3 219 18.3 100720 90
2004-08-16 07:33:56 51°18.458 2°51.058 5.9 219 18.3 100720 90
2004-08-16 07:34:02 51°18.456 2°51.059 5.7 220 18.2 100710 90
2004-08-16 07:34:06 51°18.456 2°51.059 5.6 223 18.2 100710 90
2004-08-16 07:34:11 51°18.455 2°51.059 5 217 18.3 100720 91
2004-08-16 07:34:16 51°18.454 2°51.06 5.5 220 18.3 100720 91
2004-08-16 07:34:22 51°18.453 2°51.06 5.8 219 18.2 100720 91
2004-08-16 07:34:24 51°18.453 2°51.06 5.6 219 18.2 100720 91
2004-08-16 07:34:31 51°18.452 2°51.06 4.8 222 18.2 100720 90
2004-08-16 07:34:37 51°18.45 2°51.061 5.1 224 18.2 100720 90
2004-08-16 07:34:42 51°18.45 2°51.061 5.5 225 18.3 100720 90
2004-08-16 07:34:45 51°18.449 2°51.061 5.8 225 18.3 100720 90
2004-08-16 07:34:51 51°18.448 2°51.062 5.9 227 18.3 100720 90
2004-08-16 07:34:56 51°18.448 2°51.062 5.4 224 18.3 100720 90
2004-08-16 07:35:02 51°18.447 2°51.062 6.2 223 18.3 100710 90
2004-08-16 07:35:06 51°18.446 2°51.062 6.3 222 18.3 100710 90
2004-08-16 07:35:12 51°18.445 2°51.062 5.9 220 18.3 100710 91
2004-08-16 07:35:17 51°18.445 2°51.063 5.8 225 18.3 100710 91
2004-08-16 07:35:21 51°18.444 2°51.063 6.3 228 18.3 100710 90
2004-08-16 07:35:24 51°18.444 2°51.063 5.6 226 18.3 100710 90
2004-08-16 07:35:31 51°18.443 2°51.063 6.5 230 18.3 100710 90
2004-08-16 07:35:37 51°18.442 2°51.063 6.5 229 18.3 100710 90
2004-08-16 07:35:41 51°18.441 2°51.063 5.6 228 18.2 100710 90
2004-08-16 07:35:45 51°18.441 2°51.063 5.5 232 18.2 100710 90
2004-08-16 07:35:52 51°18.44 2°51.063 5.6 235 18.2 100710 90
2004-08-16 07:35:57 51°18.44 2°51.063 5.1 236 18.2 100710 90
2004-08-16 07:36:01 51°18.439 2°51.063 5.3 231 18.2 100710 90
2004-08-16 07:36:05 51°18.438 2°51.063 5.8 228 18.2 100710 90
2004-08-16 07:36:12 51°18.438 2°51.064 6.3 229 18.2 100720 90
2004-08-16 07:36:16 51°18.438 2°51.064 5.8 235 18.2 100720 90
2004-08-16 07:36:20 51°18.438 2°51.066 5.3 234 18.3 100710 90
2004-08-16 07:36:26 51°18.439 2°51.068 5.1 235 18.3 100710 90
2004-08-16 07:36:31 51°18.441 2°51.071 5.2 236 18.2 100710 90
2004-08-16 07:36:37 51°18.443 2°51.075 5.9 238 18.2 100710 90
2004-08-16 07:36:40 51°18.444 2°51.077 5.4 238 18.2 100710 90
2004-08-16 07:36:45 51°18.447 2°51.081 4.2 250 18.2 100710 90
2004-08-16 07:36:51 51°18.451 2°51.087 5.3 263 18.2 100710 90
2004-08-16 07:36:57 51°18.457 2°51.095 5.7 270 18.2 100710 90
2004-08-16 07:37:01 51°18.463 2°51.101 5.8 265 18.2 100710 90
2004-08-16 07:37:06 51°18.47 2°51.11 4.8 280 18.2 100710 90
2004-08-16 07:37:11 51°18.479 2°51.119 5 282 18.3 100710 90
2004-08-16 07:37:16 51°18.489 2°51.128 5.7 291 18.3 100710 90
2004-08-16 07:37:28 51°18.514 2°51.15 6.4 295 18.3 100710 90
2004-08-16 07:37:31 51°18.521 2°51.156 5.8 301 18.3 100710 90
2004-08-16 07:37:37 51°18.534 2°51.17 5.1 296 18.3 100710 90
2004-08-16 07:37:40 51°18.54 2°51.177 4.8 289 18.3 100710 90
2004-08-16 07:37:48 51°18.557 2°51.2 4.8 299 18.3 100710 90
2004-08-16 07:37:51 51°18.563 2°51.209 4.9 301 18.3 100710 90
2004-08-16 07:37:57 51°18.575 2°51.228 4.7 299 18.3 100710 90
2004-08-16 07:38:02 51°18.586 2°51.246 4.4 301 18.3 100710 90
2004-08-16 07:38:08 51°18.598 2°51.267 4.7 302 18.3 100710 90
2004-08-16 07:38:12 51°18.606 2°51.283 4.4 302 18.3 100710 90
2004-08-16 07:38:16 51°18.615 2°51.298 4.6 312 18.3 100710 90
2004-08-16 07:38:20 51°18.623 2°51.314 4.2 302 18.3 100710 90
2004-08-16 07:38:27 51°18.637 2°51.342 3.6 295 18.3 100710 90
2004-08-16 07:38:31 51°18.645 2°51.36 3.9 312 18.3 100710 90
2004-08-16 07:38:37 51°18.655 2°51.386 3.8 297 18.3 100710 90
2004-08-16 07:38:40 51°18.66 2°51.4 4 306 18.3 100710 90
2004-08-16 07:38:45 51°18.669 2°51.423 3.8 299 18.3 100710 89
2004-08-16 07:38:53 51°18.681 2°51.46 3.8 295 18.3 100710 89
2004-08-16 07:38:56 51°18.685 2°51.475 3.3 297 18.3 100710 89
2004-08-16 07:39:00 51°18.69 2°51.494 3.2 297 18.3 100710 89
2004-08-16 07:39:07 51°18.699 2°51.529 2.8 296 18.3 100710 89
2004-08-16 07:39:13 51°18.706 2°51.559 2.4 301 18.3 100710 89
2004-08-16 07:39:16 51°18.709 2°51.575 2.3 298 18.3 100710 89
2004-08-16 07:39:21 51°18.714 2°51.6 2.3 298 18.3 100710 89
2004-08-16 07:39:28 51°18.722 2°51.635 2.2 305 18.3 100710 89
2004-08-16 07:39:31 51°18.725 2°51.65 2.1 298 18.3 100710 89
2004-08-16 07:39:36 51°18.731 2°51.676 2.4 300 18.3 100710 89
2004-08-16 07:39:40 51°18.736 2°51.696 2.6 300 18.3 100710 89
2004-08-16 07:39:47 51°18.744 2°51.731 2.5 303 18.3 100710 89
2004-08-16 07:39:53 51°18.751 2°51.762 2 290 18.3 100710 89
2004-08-16 07:39:58 51°18.757 2°51.787 1.9 291 18.3 100720 89
2004-08-16 07:40:02 51°18.762 2°51.807 1.6 283 18.3 100720 89
2004-08-16 07:40:08 51°18.768 2°51.837 1.7 280 18.3 100710 89
2004-08-16 07:40:11 51°18.772 2°51.853 1.9 290 18.3 100710 89
2004-08-16 07:40:16 51°18.778 2°51.878 2.4 302 18.3 100710 89
2004-08-16 07:40:20 51°18.783 2°51.898 2.9 292 18.3 100710 89
2004-08-16 07:40:28 51°18.793 2°51.939 2.9 304 18.3 100720 89
2004-08-16 07:40:31 51°18.796 2°51.954 2.8 310 18.3 100720 89
2004-08-16 07:40:36 51°18.803 2°51.979 3.2 282 18.3 100710 89
2004-08-16 07:40:42 51°18.81 2°52.009 2.8 285 18.3 100710 89
2004-08-16 07:40:48 51°18.817 2°52.04 2.6 286 18.3 100710 89
2004-08-16 07:40:53 51°18.822 2°52.065 2.6 288 18.3 100710 89
2004-08-16 07:40:57 51°18.827 2°52.085 2.5 288 18.3 100710 89
2004-08-16 07:41:02 51°18.833 2°52.111 2.8 287 18.3 100710 89
2004-08-16 07:41:07 51°18.839 2°52.136 2.3 282 18.3 100720 89
2004-08-16 07:41:13 51°18.846 2°52.167 2.5 285 18.3 100720 89
2004-08-16 07:41:17 51°18.851 2°52.187 2.6 285 18.3 100710 89
2004-08-16 07:41:21 51°18.855 2°52.207 2.4 285 18.3 100710 89
2004-08-16 07:41:27 51°18.862 2°52.238 2.3 284 18.3 100720 88
2004-08-16 07:41:33 51°18.87 2°52.268 2.5 281 18.3 100720 88
2004-08-16 07:41:36 51°18.873 2°52.283 2.2 279 18.3 100720 88
2004-08-16 07:41:40 51°18.879 2°52.303 2.2 283 18.3 100720 88
2004-08-16 07:41:48 51°18.888 2°52.343 1.8 291 18.3 100720 88
2004-08-16 07:41:52 51°18.893 2°52.363 2.2 281 18.3 100720 88
2004-08-16 07:41:56 51°18.898 2°52.383 2.2 291 18.3 100720 88
2004-08-16 07:42:00 51°18.903 2°52.404 1.8 296 18.3 100720 88
2004-08-16 07:42:08 51°18.912 2°52.444 2.6 308 18.3 100720 88
2004-08-16 07:42:12 51°18.917 2°52.464 1.9 306 18.3 100720 88
2004-08-16 07:42:16 51°18.921 2°52.484 1.9 294 18.4 100720 88
2004-08-16 07:42:20 51°18.926 2°52.505 2.1 310 18.4 100720 88
2004-08-16 07:42:28 51°18.936 2°52.545 2.9 305 18.4 100720 88
2004-08-16 07:42:33 51°18.942 2°52.57 2.7 299 18.4 100720 88
2004-08-16 07:42:36 51°18.945 2°52.585 2.3 308 18.4 100720 88
2004-08-16 07:42:41 51°18.951 2°52.61 2.7 297 18.4 100720 88
2004-08-16 07:42:47 51°18.959 2°52.64 2.4 300 18.4 100720 88
2004-08-16 07:42:51 51°18.963 2°52.66 2.4 295 18.4 100720 88
2004-08-16 07:42:56 51°18.97 2°52.685 2.4 293 18.4 100720 88
2004-08-16 07:43:00 51°18.974 2°52.705 2.6 294 18.4 100720 88
2004-08-16 07:43:08 51°18.984 2°52.746 2.2 295 18.4 100720 88
2004-08-16 07:43:12 51°18.989 2°52.766 2.6 294 18.4 100720 88
2004-08-16 07:43:16 51°18.994 2°52.785 2.3 293 18.4 100720 88
2004-08-16 07:43:20 51°18.998 2°52.806 2.4 292 18.4 100720 88
2004-08-16 07:43:28 51°19.008 2°52.845 2.3 296 18.5 100720 88
2004-08-16 07:43:32 51°19.013 2°52.866 2.2 293 18.5 100720 88
2004-08-16 07:43:36 51°19.017 2°52.886 2.1 295 18.5 100720 87
2004-08-16 07:43:40 51°19.022 2°52.906 1.9 293 18.5 100720 87
2004-08-16 07:43:47 51°19.031 2°52.941 2.1 293 18.5 100720 87
2004-08-16 07:43:53 51°19.038 2°52.971 2.8 289 18.5 100720 87
2004-08-16 07:43:56 51°19.042 2°52.986 2.6 295 18.5 100730 87
2004-08-16 07:44:00 51°19.047 2°53.006 2.9 288 18.5 100730 87
2004-08-16 07:44:08 51°19.057 2°53.046 3 303 18.5 100720 87
2004-08-16 07:44:12 51°19.062 2°53.066 3.5 275 18.5 100720 87
2004-08-16 07:44:16 51°19.067 2°53.085 3.4 281 18.5 100720 87
2004-08-16 07:44:20 51°19.072 2°53.106 3.5 287 18.5 100720 87
2004-08-16 07:44:27 51°19.081 2°53.14 2.3 286 18.6 100720 87
2004-08-16 07:44:31 51°19.087 2°53.16 3.1 300 18.6 100720 87
2004-08-16 07:44:36 51°19.093 2°53.185 2.8 280 18.6 100720 87
2004-08-16 07:44:45 51°19.104 2°53.23 2.9 273 18.6 100720 87
2004-08-16 07:44:48 51°19.108 2°53.245 3 273 18.6 100720 87
2004-08-16 07:44:56 51°19.118 2°53.285 2.9 274 18.6 100720 87
2004-08-16 07:45:00 51°19.123 2°53.305 2.8 273 18.6 100720 87
2004-08-16 07:45:04 51°19.128 2°53.325 2.7 273 18.6 100720 87
2004-08-16 07:45:11 51°19.137 2°53.359 2.7 273 18.6 100720 86
2004-08-16 07:45:16 51°19.143 2°53.385 2.8 280 18.6 100720 86
2004-08-16 07:45:21 51°19.15 2°53.41 2.2 291 18.6 100720 86
2004-08-16 07:45:26 51°19.156 2°53.435 2.3 282 18.6 100720 86
2004-08-16 07:45:31 51°19.162 2°53.46 3 275 18.6 100720 86
2004-08-16 07:45:36 51°19.168 2°53.485 3 269 18.6 100720 86
2004-08-16 07:45:41 51°19.174 2°53.51 2.4 262 18.6 100730 86
2004-08-16 07:45:47 51°19.181 2°53.541 2.7 269 18.6 100730 86
2004-08-16 07:45:52 51°19.188 2°53.566 2.5 284 18.6 100720 86
2004-08-16 07:45:56 51°19.193 2°53.586 2.7 278 18.6 100720 86
2004-08-16 07:46:02 51°19.2 2°53.616 3.1 292 18.6 100720 86
2004-08-16 07:46:04 51°19.203 2°53.627 3 290 18.6 100720 86
2004-08-16 07:46:10 51°19.21 2°53.657 2.8 308 18.6 100720 85
2004-08-16 07:46:20 51°19.223 2°53.707 3 300 18.6 100720 85
2004-08-16 07:46:28 51°19.234 2°53.747 3.4 289 18.6 100730 85
2004-08-16 07:46:33 51°19.24 2°53.772 3.5 305 18.6 100730 85
2004-08-16 07:46:37 51°19.245 2°53.792 3.6 301 18.6 100720 86
2004-08-16 07:46:40 51°19.249 2°53.807 3.5 286 18.6 100720 86
2004-08-16 07:46:47 51°19.258 2°53.841 4 289 18.7 100720 86
2004-08-16 07:46:53 51°19.266 2°53.871 3.2 285 18.7 100720 86
2004-08-16 07:46:56 51°19.269 2°53.887 3.4 294 18.7 100720 86
2004-08-16 07:47:01 51°19.275 2°53.912 2.9 304 18.7 100720 86
2004-08-16 07:47:07 51°19.281 2°53.943 3.1 286 18.7 100720 85
2004-08-16 07:47:13 51°19.288 2°53.973 2.5 285 18.7 100720 85
2004-08-16 07:47:15 51°19.29 2°53.983 2.6 283 18.7 100720 85
2004-08-16 07:47:20 51°19.295 2°54.009 2.4 276 18.7 100720 85
2004-08-16 07:47:27 51°19.303 2°54.044 2.3 276 18.7 100730 85
2004-08-16 07:47:29 51°19.305 2°54.055 2.6 288 18.7 100730 85
2004-08-16 07:47:43 51°19.32 2°54.126 3.1 291 18.7 100730 85
2004-08-16 07:47:47 51°19.324 2°54.146 2.6 297 18.6 100720 85
2004-08-16 07:47:52 51°19.329 2°54.171 2.6 286 18.6 100720 85
2004-08-16 07:47:56 51°19.334 2°54.192 3 293 18.6 100730 85
2004-08-16 07:48:00 51°19.338 2°54.212 2.2 292 18.6 100730 85
2004-08-16 07:48:07 51°19.346 2°54.246 3 293 18.6 100730 85
2004-08-16 07:48:13 51°19.353 2°54.276 3.1 291 18.6 100730 85
2004-08-16 07:48:16 51°19.356 2°54.291 3.4 283 18.6 100720 85
2004-08-16 07:48:21 51°19.361 2°54.316 3 272 18.6 100720 85
2004-08-16 07:48:27 51°19.368 2°54.347 3.1 281 18.6 100720 85
2004-08-16 07:48:33 51°19.374 2°54.377 3.7 271 18.6 100720 85
2004-08-16 07:48:37 51°19.378 2°54.397 3.6 276 18.7 100730 85
2004-08-16 07:48:42 51°19.384 2°54.422 2.6 295 18.7 100730 85
2004-08-16 07:48:47 51°19.389 2°54.447 3 283 18.7 100720 85
2004-08-16 07:48:53 51°19.396 2°54.477 3 288 18.7 100720 85
2004-08-16 07:48:57 51°19.4 2°54.497 3.2 280 18.7 100720 84
2004-08-16 07:49:02 51°19.406 2°54.522 3.1 276 18.7 100720 84
2004-08-16 07:49:07 51°19.411 2°54.547 2.6 276 18.7 100720 85
2004-08-16 07:49:13 51°19.418 2°54.577 3.3 276 18.7 100720 85
2004-08-16 07:49:17 51°19.423 2°54.596 2.9 281 18.7 100720 84
2004-08-16 07:49:21 51°19.427 2°54.616 3.1 270 18.7 100720 84
2004-08-16 07:49:28 51°19.436 2°54.651 3.6 292 18.6 100720 84
2004-08-16 07:49:36 51°19.446 2°54.69 3.5 268 18.6 100720 84
2004-08-16 07:49:44 51°19.456 2°54.729 2.8 284 18.6 100720 84
2004-08-16 07:49:49 51°19.462 2°54.754 3 303 18.6 100720 84
2004-08-16 07:49:53 51°19.466 2°54.774 3.4 267 18.6 100720 84
2004-08-16 07:49:56 51°19.47 2°54.788 2.2 261 18.7 100720 84
2004-08-16 07:50:04 51°19.479 2°54.828 2.5 261 18.7 100720 84
2004-08-16 07:50:08 51°19.483 2°54.848 2 258 18.6 100720 84
2004-08-16 07:50:13 51°19.489 2°54.873 2.1 287 18.6 100720 84
2004-08-16 07:50:17 51°19.493 2°54.893 2.8 293 18.6 100720 84
2004-08-16 07:50:22 51°19.498 2°54.918 3.4 270 18.6 100720 84
2004-08-16 07:50:27 51°19.504 2°54.943 2.6 260 18.6 100720 84
2004-08-16 07:50:31 51°19.508 2°54.963 3.8 267 18.6 100720 84
2004-08-16 07:50:37 51°19.515 2°54.993 3.6 264 18.6 100720 84
2004-08-16 07:50:41 51°19.519 2°55.012 3.6 266 18.6 100720 84
2004-08-16 07:50:48 51°19.528 2°55.047 3.5 272 18.6 100720 84
2004-08-16 07:50:53 51°19.534 2°55.071 3.4 267 18.6 100720 84
2004-08-16 07:50:57 51°19.538 2°55.09 3.5 262 18.6 100720 84
2004-08-16 07:51:04 51°19.547 2°55.124 3.1   18.6 100720 84
2004-08-16 07:51:08 51°19.551 2°55.144 2.9 272 18.6 100730 84
2004-08-16 07:51:11 51°19.555 2°55.159 2.1 269 18.6 100730 84
2004-08-16 07:51:16 51°19.56 2°55.183 1.9 284 18.6 100720 84
2004-08-16 07:51:24 51°19.569 2°55.223 2.2 283 18.6 100720 84
2004-08-16 07:51:28 51°19.573 2°55.243 2.6 294 18.6 100720 84
2004-08-16 07:51:31 51°19.576 2°55.258 3.9 274 18.6 100720 84
2004-08-16 07:51:36 51°19.581 2°55.283 2.7 284 18.6 100730 84
2004-08-16 07:51:44 51°19.59 2°55.322 3.7 281 18.6 100730 84
2004-08-16 07:51:48 51°19.594 2°55.342 3.8 281 18.6 100720 84
2004-08-16 07:51:51 51°19.598 2°55.357 3 292 18.6 100720 84
2004-08-16 07:51:57 51°19.605 2°55.386 2.5 285 18.6 100720 84
2004-08-16 07:52:04 51°19.613 2°55.421 3.6 283 18.6 100720 84
2004-08-16 07:52:08 51°19.617 2°55.44 4.1 280 18.6 100720 84
2004-08-16 07:52:11 51°19.62 2°55.455 4.2 274 18.6 100720 84
2004-08-16 07:52:17 51°19.627 2°55.485 2.8 281 18.6 100720 84
2004-08-16 07:52:24 51°19.635 2°55.519 3.8 280 18.6 100720 84
2004-08-16 07:52:28 51°19.639 2°55.539 3.4 269 18.6 100720 84
2004-08-16 07:52:31 51°19.642 2°55.554 4.4 278 18.6 100720 84
2004-08-16 07:52:36 51°19.647 2°55.579 3.7 272 18.7 100720 85
2004-08-16 07:52:44 51°19.655 2°55.62 3.5 269 18.7 100720 85
2004-08-16 07:52:48 51°19.658 2°55.64 3.7 271 18.7 100720 85
2004-08-16 07:52:51 51°19.661 2°55.655 4.2 269 18.7 100720 85
2004-08-16 07:52:56 51°19.666 2°55.68 3.5 278 18.6 100720 85
2004-08-16 07:53:03 51°19.673 2°55.715 3.4 276 18.6 100720 85
2004-08-16 07:53:08 51°19.679 2°55.74 3.8 281 18.6 100720 84
2004-08-16 07:53:13 51°19.684 2°55.765 4.1 264 18.6 100720 84
2004-08-16 07:53:18 51°19.689 2°55.79 4.1 261 18.6 100720 84
2004-08-16 07:53:24 51°19.695 2°55.82 3.7 275 18.6 100720 84
2004-08-16 07:53:29 51°19.7 2°55.845 3.7 275 18.6 100720 84
2004-08-16 07:53:42 51°19.713 2°55.91 3.1 258 18.6 100720 84
2004-08-16 07:53:48 51°19.72 2°55.94 3.4 259 18.6 100720 84
2004-08-16 07:53:53 51°19.725 2°55.964 2.8 258 18.6 100720 84
2004-08-16 07:53:58 51°19.73 2°55.989 2.1 256 18.6 100720 84
2004-08-16 07:54:00 51°19.733 2°55.999 3 268 18.6 100720 84
2004-08-16 07:54:08 51°19.741 2°56.04 3.5 279 18.6 100720 84
2004-08-16 07:54:13 51°19.746 2°56.065 4.4 272 18.6 100720 84
2004-08-16 07:54:16 51°19.749 2°56.08 4.8 272 18.5 100720 83
2004-08-16 07:54:20 51°19.752 2°56.1 4.3 264 18.5 100720 83
2004-08-16 07:54:27 51°19.759 2°56.135 3.4 262 18.6 100720 83
2004-08-16 07:54:33 51°19.765 2°56.166 2.6 258 18.6 100720 83
2004-08-16 07:54:36 51°19.768 2°56.181 2.8 261 18.6 100720 83
2004-08-16 07:54:41 51°19.773 2°56.206 3.7 268 18.6 100720 83
2004-08-16 07:54:47 51°19.779 2°56.236 3.9 274 18.5 100720 83
2004-08-16 07:54:51 51°19.782 2°56.257 2.7 260 18.5 100720 83
2004-08-16 07:54:57 51°19.788 2°56.287 2.5 254 18.5 100720 83
2004-08-16 07:55:01 51°19.792 2°56.307 2.4 263 18.5 100720 83
2004-08-16 07:55:07 51°19.797 2°56.338 2.3 257 18.5 100720 83
2004-08-16 07:55:13 51°19.803 2°56.368 2.3 254 18.5 100720 83
2004-08-16 07:55:16 51°19.806 2°56.383 2.9 273 18.5 100720 83
2004-08-16 07:55:20 51°19.81 2°56.403 2.9 260 18.5 100720 83
2004-08-16 07:55:27 51°19.818 2°56.439 3.4 270 18.5 100720 83
2004-08-16 07:55:31 51°19.822 2°56.459 3 274 18.5 100720 83
2004-08-16 07:55:37 51°19.828 2°56.489 2.4 256 18.5 100720 83
2004-08-16 07:55:42 51°19.833 2°56.514 2.5 256 18.5 100720 83
2004-08-16 07:55:48 51°19.838 2°56.545 1.9 252 18.5 100720 83
2004-08-16 07:55:51 51°19.841 2°56.56 2.4 245 18.5 100720 83
2004-08-16 07:55:56 51°19.845 2°56.585 1.7 250 18.5 100720 83
2004-08-16 07:56:00 51°19.849 2°56.606 1.9 247 18.5 100720 83
2004-08-16 07:56:08 51°19.857 2°56.646 1.7 255 18.5 100720 83
2004-08-16 07:56:12 51°19.86 2°56.666 1.5 256 18.5 100720 83
2004-08-16 07:56:16 51°19.864 2°56.686 1.6 253 18.5 100720 83
2004-08-16 07:56:23 51°19.871 2°56.722 1.7 258 18.5 100720 83
2004-08-16 07:56:28 51°19.876 2°56.747 1.6 256 18.5 100730 83
2004-08-16 07:56:31 51°19.88 2°56.762 1.6 261 18.5 100730 83
2004-08-16 07:56:36 51°19.885 2°56.787 2.1 276 18.5 100730 83
2004-08-16 07:56:44 51°19.893 2°56.827 2 284 18.5 100730 83
2004-08-16 07:56:51 51°19.9 2°56.862 1.6 290 18.5 100720 83
2004-08-16 07:56:56 51°19.905 2°56.887 1.9 282 18.5 100720 83
2004-08-16 07:57:01 51°19.91 2°56.912 1.9 286 18.5 100720 83
2004-08-16 07:57:04 51°19.912 2°56.928 2.3 268 18.5 100720 83
2004-08-16 07:57:11 51°19.919 2°56.963 1.6 256 18.5 100720 83
2004-08-16 07:57:16 51°19.924 2°56.988 1.4 258 18.5 100720 83
2004-08-16 07:57:20 51°19.929 2°57.008 1.7 250 18.5 100720 83
2004-08-16 07:57:24 51°19.933 2°57.027 2.8 271 18.5 100720 83
2004-08-16 07:57:31 51°19.941 2°57.062 2.5 259 18.5 100720 83
2004-08-16 07:57:36 51°19.946 2°57.087 2.5 266 18.5 100720 83
2004-08-16 07:57:41 51°19.951 2°57.112 2.2 265 18.5 100720 83
2004-08-16 07:57:46 51°19.956 2°57.137 1.9 285 18.5 100720 83
2004-08-16 07:57:52 51°19.963 2°57.167 2.4 263 18.5 100720 83
2004-08-16 07:57:55 51°19.966 2°57.182 2.1 274 18.5 100720 83
2004-08-16 07:58:01 51°19.972 2°57.212 2.1 277 18.5 100720 83
2004-08-16 07:58:05 51°19.976 2°57.232 2.4 308 18.5 100720 83
2004-08-16 07:58:11 51°19.982 2°57.262 3.7 276 18.5 100720 83
2004-08-16 07:58:17 51°19.988 2°57.292 3.4 289 18.5 100720 83
2004-08-16 07:58:20 51°19.991 2°57.306 3.9 280 18.6 100720 83
2004-08-16 07:58:25 51°19.996 2°57.332 3.7 292 18.6 100720 83
2004-08-16 07:58:31 51°20.002 2°57.361 4 273 18.6 100730 84
2004-08-16 07:58:37 51°20.008 2°57.391 4.3 273 18.6 100730 84
2004-08-16 07:58:40 51°20.011 2°57.406 4.3 275 18.6 100720 84
2004-08-16 07:58:47 51°20.019 2°57.441 4.2 273 18.6 100720 84
2004-08-16 07:58:52 51°20.024 2°57.465 3.5 278 18.6 100720 84
2004-08-16 07:58:56 51°20.028 2°57.485 4 273 18.6 100720 84
2004-08-16 07:59:01 51°20.033 2°57.51 3.6 274 18.6 100720 84
2004-08-16 07:59:05 51°20.037 2°57.53 3.7 274 18.6 100720 84
2004-08-16 07:59:11 51°20.043 2°57.56 3.1 275 18.6 100720 84
2004-08-16 07:59:17 51°20.049 2°57.59 3.1 276 18.6 100720 84
2004-08-16 07:59:20 51°20.052 2°57.605 3 281 18.6 100720 84
2004-08-16 07:59:26 51°20.058 2°57.635 2.7 279 18.6 100720 84
2004-08-16 07:59:31 51°20.062 2°57.66 3.1 277 18.6 100720 83
2004-08-16 07:59:36 51°20.067 2°57.685 3 282 18.6 100720 83
2004-08-16 07:59:41 51°20.073 2°57.71 3.4 288 18.6 100720 83
2004-08-16 07:59:46 51°20.078 2°57.735 3.4 294 18.6 100720 83
2004-08-16 07:59:51 51°20.083 2°57.759 3.6 288 18.5 100720 83
2004-08-16 07:59:56 51°20.088 2°57.785 3.4 275 18.5 100720 83
2004-08-16 08:00:01 51°20.093 2°57.809 3.3 278 18.6 100720 83
2004-08-16 08:00:04 51°20.095 2°57.824 3.7 269 18.6 100720 83
2004-08-16 08:00:12 51°20.103 2°57.864 3.5 271 18.5 100720 83
2004-08-16 08:00:17 51°20.108 2°57.889 3.2 273 18.5 100720 83
2004-08-16 08:00:21 51°20.112 2°57.909 3.3 275 18.5 100720 83
2004-08-16 08:00:25 51°20.115 2°57.93 3.4 269 18.5 100720 83
2004-08-16 08:00:31 51°20.121 2°57.96 3.2 269 18.5 100720 83
2004-08-16 08:00:37 51°20.127 2°57.99 2.9 287 18.5 100720 83
2004-08-16 08:00:41 51°20.13 2°58.01 3 284 18.5 100720 83
2004-08-16 08:00:46 51°20.135 2°58.035 2.7 286 18.5 100720 83
2004-08-16 08:00:52 51°20.141 2°58.065 2.8 283 18.5 100720 83
2004-08-16 08:00:56 51°20.145 2°58.085 2.5 283 18.5 100720 83
2004-08-16 08:01:00 51°20.149 2°58.104 2.3 283 18.5 100720 83
2004-08-16 08:01:07 51°20.156 2°58.139 2.4 293 18.5 100720 83
2004-08-16 08:01:12 51°20.161 2°58.164 2.3 294 18.5 100720 83
2004-08-16 08:01:16 51°20.165 2°58.184 2.5 279 18.5 100720 83
2004-08-16 08:01:21 51°20.17 2°58.209 2.4 274 18.5 100720 83
2004-08-16 08:01:25 51°20.173 2°58.229 2.7 264 18.5 100720 83
2004-08-16 08:01:32 51°20.18 2°58.264 2.4 274 18.5 100720 83
2004-08-16 08:01:36 51°20.184 2°58.284 1.6 270 18.5 100720 83
2004-08-16 08:01:40 51°20.187 2°58.305 1.3 268 18.5 100720 83
2004-08-16 08:01:44 51°20.191 2°58.325 1.1 249 18.5 100720 83
2004-08-16 08:01:52 51°20.198 2°58.365 1.3 250 18.5 100720 83
2004-08-16 08:01:57 51°20.203 2°58.39 1.3 266 18.5 100720 83
2004-08-16 08:02:01 51°20.206 2°58.41 1.8 275 18.5 100720 83
2004-08-16 08:02:05 51°20.21 2°58.43 1.3 247 18.5 100720 83
2004-08-16 08:02:12 51°20.217 2°58.464 1.2 248 18.5 100720 83
2004-08-16 08:02:17 51°20.222 2°58.49 1.1 254 18.5 100720 83
2004-08-16 08:02:20 51°20.225 2°58.504 1 255 18.5 100720 83
2004-08-16 08:02:24 51°20.229 2°58.524 1.1 257 18.5 100720 83
2004-08-16 08:02:33 51°20.238 2°58.569 1.1 236 18.5 100720 83
2004-08-16 08:02:40 51°20.245 2°58.604 1 225 18.5 100720 83
2004-08-16 08:02:45 51°20.25 2°58.629 0.8 229 18.5 100720 83
2004-08-16 08:02:49 51°20.254 2°58.649 0.6 224 18.5 100720 83
2004-08-16 08:02:52 51°20.256 2°58.664 0.7 261 18.5 100720 83
2004-08-16 08:03:00 51°20.263 2°58.705 1.7 270 18.5 100730 83
2004-08-16 08:03:05 51°20.268 2°58.73 1.1 303 18.5 100730 83
2004-08-16 08:03:08 51°20.271 2°58.745 1.2 290 18.5 100720 83
2004-08-16 08:03:11 51°20.273 2°58.76 2.3 311 18.5 100720 83
2004-08-16 08:03:20 51°20.282 2°58.805 3.3 322 18.6 100730 83
2004-08-16 08:03:24 51°20.285 2°58.825 2.9 296 18.6 100730 83
2004-08-16 08:03:29 51°20.29 2°58.85 2.7 231 18.6 100720 83
2004-08-16 08:03:34 51°20.295 2°58.875 3.4 281 18.6 100720 83
2004-08-16 08:03:39 51°20.3 2°58.9 4.4 285 18.6 100720 84
2004-08-16 08:03:45 51°20.306 2°58.93 4.5 276 18.6 100720 84
2004-08-16 08:03:49 51°20.31 2°58.95 4 276 18.6 100730 84
2004-08-16 08:03:53 51°20.313 2°58.97 3.1 268 18.6 100730 84
2004-08-16 08:04:00 51°20.32 2°59.005 2.7 258 18.6 100730 84
2004-08-16 08:04:04 51°20.324 2°59.025 1.7 255 18.6 100730 84
2004-08-16 08:04:08 51°20.328 2°59.045 1.8 254 18.6 100720 84
2004-08-16 08:04:11 51°20.331 2°59.06 1.8 253 18.6 100720 84
2004-08-16 08:04:20 51°20.339 2°59.105 1.8 258 18.6 100720 83
2004-08-16 08:04:25 51°20.344 2°59.13 1.7 252 18.6 100720 83
2004-08-16 08:04:29 51°20.348 2°59.15 1.7 249 18.6 100720 83
2004-08-16 08:04:33 51°20.352 2°59.17 1.7 268 18.6 100720 83
2004-08-16 08:04:39 51°20.357 2°59.2 1.4 290 18.6 100720 83
2004-08-16 08:04:45 51°20.363 2°59.23 1.3 246 18.6 100720 83
2004-08-16 08:04:49 51°20.367 2°59.25 1.3 259 18.6 100720 83
2004-08-16 08:04:54 51°20.371 2°59.275 1.8 275 18.6 100720 83
2004-08-16 08:05:05 51°20.382 2°59.33 2.1 289 18.6 100720 83
2004-08-16 08:05:12 51°20.389 2°59.365 2.1 279 18.6 100720 83
2004-08-16 08:05:16 51°20.393 2°59.385 1.3 276 18.6 100720 83
2004-08-16 08:05:20 51°20.397 2°59.405 1.3 286 18.6 100720 83
2004-08-16 08:05:25 51°20.402 2°59.429 1.1 291 18.6 100720 83
2004-08-16 08:05:32 51°20.409 2°59.464 1.1 296 18.6 100720 83
2004-08-16 08:05:36 51°20.413 2°59.484 2.2 286 18.6 100720 83
2004-08-16 08:05:41 51°20.418 2°59.51 2 284 18.6 100730 83
2004-08-16 08:05:45 51°20.422 2°59.529 1.8 298 18.6 100730 83
2004-08-16 08:05:52 51°20.429 2°59.564 1.9 294 18.6 100730 83
2004-08-16 08:05:57 51°20.434 2°59.589 1.7 279 18.6 100730 83
2004-08-16 08:06:01 51°20.438 2°59.61 1.5 279 18.6 100730 84
2004-08-16 08:06:05 51°20.442 2°59.63 1.8 280 18.6 100730 84
2004-08-16 08:06:11 51°20.447 2°59.66 1.9 297 18.6 100720 84
2004-08-16 08:06:17 51°20.453 2°59.691 2 330 18.6 100720 84
2004-08-16 08:06:21 51°20.457 2°59.711 2.1 41 18.6 100720 84
2004-08-16 08:06:24 51°20.46 2°59.726 2.8 293 18.6 100720 84
2004-08-16 08:06:32 51°20.467 2°59.766 2.6 285 18.7 100730 84
2004-08-16 08:06:36 51°20.471 2°59.786 1.7 282 18.7 100730 84
2004-08-16 08:06:40 51°20.475 2°59.807 1.8 281 18.7 100720 84
2004-08-16 08:06:45 51°20.479 2°59.832 1.9 274 18.7 100720 84
2004-08-16 08:06:52 51°20.486 2°59.867 2.2 273 18.7 100720 84
2004-08-16 08:06:56 51°20.49 2°59.888 2.2 289 18.7 100720 84
2004-08-16 08:07:00 51°20.494 2°59.908 2.4 284 18.7 100730 84
2004-08-16 08:07:04 51°20.498 2°59.928 2.5 315 18.7 100730 84
2004-08-16 08:07:11 51°20.505 2°59.963 3.1 302 18.7 100730 84
2004-08-16 08:07:16 51°20.51 2°59.988 3.1 278 18.7 100730 84
2004-08-16 08:07:21 51°20.515 3°0.013 2.6 277 18.7 100730 84
2004-08-16 08:07:26 51°20.52 3°0.038 2.2 279 18.7 100730 84
2004-08-16 08:07:31 51°20.524 3°0.063 2.1 277 18.7 100720 84
2004-08-16 08:07:36 51°20.529 3°0.089 2 283 18.7 100720 84
2004-08-16 08:07:41 51°20.533 3°0.114 1.9 285 18.7 100720 84
2004-08-16 08:07:46 51°20.538 3°0.14 2.3 289 18.7 100720 84
2004-08-16 08:07:51 51°20.542 3°0.165 2.5 292 18.7 100720 84
2004-08-16 08:07:56 51°20.547 3°0.19 2.9 288 18.7 100720 84
2004-08-16 08:08:02 51°20.552 3°0.221 3.6 293 18.7 100730 84
2004-08-16 08:08:06 51°20.556 3°0.241 3.3 292 18.7 100730 84
2004-08-16 08:08:11 51°20.562 3°0.266 3.7 306 18.7 100730 84
2004-08-16 08:08:17 51°20.568 3°0.297 3.2 293 18.7 100730 84
2004-08-16 08:08:20 51°20.571 3°0.312 3.2 282 18.7 100720 84
2004-08-16 08:08:25 51°20.576 3°0.337 3.8 294 18.7 100720 84
2004-08-16 08:08:32 51°20.584 3°0.372 3.4 288 18.7 100730 84
2004-08-16 08:08:36 51°20.588 3°0.392 2.8 284 18.7 100730 84
2004-08-16 08:08:41 51°20.592 3°0.418 2.6 285 18.7 100720 84
2004-08-16 08:08:46 51°20.597 3°0.443 2.7 299 18.7 100720 84
2004-08-16 08:08:52 51°20.602 3°0.474 2.9 314 18.7 100720 84
2004-08-16 08:08:56 51°20.606 3°0.494 2.6 298 18.7 100720 84
2004-08-16 08:09:00 51°20.609 3°0.515 2.5 301 18.7 100730 84
2004-08-16 08:09:05 51°20.613 3°0.54 2.7 307 18.7 100730 84
2004-08-16 08:09:09 51°20.617 3°0.561 2.7 227 18.7 100730 83
2004-08-16 08:09:17 51°20.624 3°0.601 2.7 294 18.7 100730 83
2004-08-16 08:09:21 51°20.628 3°0.621 2.8 297 18.6 100720 83
2004-08-16 08:09:25 51°20.632 3°0.641 3 298 18.6 100720 83
2004-08-16 08:09:32 51°20.639 3°0.676 2.7 295 18.6 100720 83
2004-08-16 08:09:37 51°20.644 3°0.702 2.6 297 18.6 100720 83
2004-08-16 08:09:40 51°20.647 3°0.716 2.7 288 18.7 100730 83
2004-08-16 08:09:45 51°20.652 3°0.742 3 302 18.7 100730 83